Time;durP1;ratioP1;P1;durP2;ratioP2;P2;SDS_P1;SDS_P2;PMS_P1;PMS_P2;Temp;Humidity;BMP_temperature;BMP_pressure;BME280_temperature;BME280_humidity;BME280_pressure;Samples;Min_cycle;Max_cycle;Signal;HPM_P1;HPM_P2
2022/07/07 00:01:30;;;;;;;6.27;3.63;;;18.60;70.30;;;;;;4993993;28;20454;-66
2022/07/07 00:04:03;;;;;;;6.50;4.60;;;18.60;68.70;;;;;;4993851;28;20518;-66
2022/07/07 00:06:32;;;;;;;4.47;3.80;;;18.50;69.50;;;;;;4994031;28;20435;-69
2022/07/07 00:08:59;;;;;;;5.53;4.13;;;18.50;70.10;;;;;;4993682;28;20440;-65
2022/07/07 00:11:27;;;;;;;6.90;4.20;;;18.50;70.70;;;;;;4991973;28;20491;-65
2022/07/07 00:13:54;;;;;;;5.37;3.83;;;18.50;71.10;;;;;;4993660;28;20439;-65
2022/07/07 00:16:23;;;;;;;5.87;4.03;;;18.60;71.50;;;;;;4993979;28;20439;-65
2022/07/07 00:18:51;;;;;;;5.50;4.60;;;18.60;70.90;;;;;;4993488;28;20945;-65
2022/07/07 00:21:19;;;;;;;6.17;3.70;;;18.70;70.20;;;;;;4993267;28;20454;-66
2022/07/07 00:23:47;;;;;;;4.73;4.07;;;18.70;70.10;;;;;;4993461;28;20772;-66
2022/07/07 00:26:14;;;;;;;6.80;4.27;;;18.70;70.00;;;;;;4993680;28;20448;-65
2022/07/07 00:28:41;;;;;;;4.73;3.67;;;18.70;70.10;;;;;;4993130;28;20455;-66
2022/07/07 00:31:08;;;;;;;4.23;3.83;;;18.80;70.30;;;;;;4993120;28;20507;-65
2022/07/07 00:33:35;;;;;;;5.37;3.40;;;18.80;70.70;;;;;;4993182;28;20447;-65
2022/07/07 00:36:07;;;;;;;8.77;3.97;;;18.70;71.90;;;;;;4993600;28;20467;-65
2022/07/07 00:38:34;;;;;;;5.37;3.50;;;18.60;72.30;;;;;;4993289;28;20448;-65
2022/07/07 00:41:02;;;;;;;4.07;3.60;;;18.50;73.20;;;;;;4987887;28;20448;-65
2022/07/07 00:43:35;;;;;;;6.50;4.60;;;18.50;73.80;;;;;;4993286;28;20435;-65
2022/07/07 00:46:04;;;;;;;5.83;4.77;;;18.50;73.30;;;;;;4973966;28;20440;-65
2022/07/07 00:48:33;;;;;;;4.40;3.33;;;18.50;73.70;;;;;;4974515;28;20445;-66
2022/07/07 00:51:01;;;;;;;4.03;3.60;;;18.40;72.50;;;;;;4992981;28;20440;-70
2022/07/07 00:53:30;;;;;;;6.97;4.30;;;18.50;71.60;;;;;;4992929;28;20527;-66
2022/07/07 00:55:57;;;;;;;7.40;3.17;;;18.50;71.30;;;;;;4993104;28;20485;-65
2022/07/07 00:58:24;;;;;;;7.00;4.80;;;18.50;71.20;;;;;;4990292;28;21465;-65
2022/07/07 01:00:51;;;;;;;4.30;3.73;;;18.50;71.10;;;;;;4993296;28;20447;-65
2022/07/07 01:03:19;;;;;;;5.37;3.93;;;18.50;71.20;;;;;;4992765;28;20852;-65
2022/07/07 01:05:47;;;;;;;8.43;3.80;;;18.50;71.30;;;;;;4993162;28;20483;-65
2022/07/07 01:08:16;;;;;;;6.53;2.87;;;18.50;71.00;;;;;;4992604;28;20482;-67
2022/07/07 01:10:46;;;;;;;5.60;3.83;;;18.60;70.60;;;;;;4993179;28;20539;-65
2022/07/07 01:13:13;;;;;;;4.30;3.20;;;18.60;71.30;;;;;;4992363;28;20550;-65
2022/07/07 01:15:40;;;;;;;4.57;4.13;;;18.60;70.30;;;;;;4993026;28;20506;-65
2022/07/07 01:18:07;;;;;;;3.40;2.70;;;18.60;70.10;;;;;;4992394;28;20438;-65
2022/07/07 01:20:34;;;;;;;4.87;3.03;;;18.60;70.00;;;;;;4993105;28;20440;-65
2022/07/07 01:23:03;;;;;;;4.70;3.30;;;18.60;69.30;;;;;;4992434;28;20443;-66
2022/07/07 01:25:31;;;;;;;4.77;3.33;;;18.60;68.40;;;;;;4993077;28;20550;-65
2022/07/07 01:27:58;;;;;;;4.10;3.37;;;18.60;68.00;;;;;;4992352;28;20448;-66
2022/07/07 01:30:25;;;;;;;8.43;3.70;;;18.60;67.60;;;;;;4993068;28;20541;-65
2022/07/07 01:32:53;;;;;;;4.50;3.17;;;18.50;67.10;;;;;;4992481;28;20479;-65
2022/07/07 01:35:20;;;;;;;5.10;3.20;;;18.50;67.30;;;;;;4992819;28;20447;-66
2022/07/07 01:37:49;;;;;;;7.20;3.83;;;18.50;66.80;;;;;;4992596;28;20471;-65
2022/07/07 01:40:17;;;;;;;3.97;3.20;;;18.50;66.70;;;;;;4992868;28;20439;-65
2022/07/07 01:42:44;;;;;;;3.37;2.53;;;18.50;66.80;;;;;;4992319;28;20459;-65
2022/07/07 01:45:12;;;;;;;4.40;3.00;;;18.50;66.40;;;;;;4992833;28;20513;-65
2022/07/07 01:47:39;;;;;;;5.77;3.00;;;18.50;66.20;;;;;;4991860;28;20444;-67
2022/07/07 01:50:07;;;;;;;3.97;2.77;;;18.50;66.00;;;;;;4992381;28;20440;-66
2022/07/07 01:52:35;;;;;;;3.27;2.80;;;18.40;66.20;;;;;;4992718;28;20561;-66
2022/07/07 01:55:02;;;;;;;4.50;3.73;;;18.40;66.20;;;;;;4992732;28;20463;-65
2022/07/07 01:57:31;;;;;;;5.40;2.90;;;18.40;66.40;;;;;;4992256;28;20519;-65
2022/07/07 01:59:58;;;;;;;4.97;3.73;;;18.40;66.90;;;;;;4992600;28;20440;-65
2022/07/07 02:02:25;;;;;;;3.77;3.17;;;18.40;66.90;;;;;;4991993;28;20444;-65
2022/07/07 02:04:52;;;;;;;4.83;3.00;;;18.40;67.10;;;;;;4992376;28;20446;-65
2022/07/07 02:07:19;;;;;;;4.87;3.10;;;18.30;66.90;;;;;;4992468;28;20439;-65
2022/07/07 02:09:46;;;;;;;4.43;3.40;;;18.30;67.20;;;;;;4992567;28;20450;-65
2022/07/07 02:12:13;;;;;;;5.77;3.03;;;18.30;66.90;;;;;;4991625;28;20550;-65
2022/07/07 02:14:42;;;;;;;6.60;4.03;;;18.30;66.70;;;;;;4991271;28;20439;-67
2022/07/07 02:17:09;;;;;;;4.47;3.57;;;18.30;66.40;;;;;;4991974;28;20923;-66
2022/07/07 02:19:36;;;;;;;6.20;3.00;;;18.20;66.60;;;;;;4992356;28;20933;-66
2022/07/07 02:22:03;;;;;;;7.70;3.30;;;18.20;66.00;;;;;;4991768;28;20863;-65
2022/07/07 02:24:30;;;;;;;8.60;3.60;;;18.20;65.80;;;;;;4992485;28;20447;-66
2022/07/07 02:26:57;;;;;;;5.17;3.00;;;18.20;65.90;;;;;;4991865;28;20852;-66
2022/07/07 02:29:24;;;;;;;11.47;3.50;;;18.10;65.40;;;;;;4992352;28;20472;-65
2022/07/07 02:31:53;;;;;;;8.07;3.20;;;18.10;65.80;;;;;;4990958;28;20990;-65
2022/07/07 02:34:20;;;;;;;6.63;3.43;;;18.00;65.80;;;;;;4992466;28;20444;-66
2022/07/07 02:36:48;;;;;;;4.57;2.83;;;17.90;66.80;;;;;;4995635;28;20479;-65
2022/07/07 02:39:15;;;;;;;5.70;3.40;;;17.90;66.40;;;;;;4995832;28;20447;-65
2022/07/07 02:41:42;;;;;;;8.17;3.13;;;17.80;66.90;;;;;;4995356;28;20444;-65
2022/07/07 02:44:09;;;;;;;4.10;3.70;;;17.80;67.20;;;;;;4995688;28;20440;-65
2022/07/07 02:46:36;;;;;;;4.37;3.00;;;17.70;67.20;;;;;;4995302;28;20472;-65
2022/07/07 02:49:04;;;;;;;6.57;4.60;;;17.70;67.50;;;;;;4995475;28;20448;-65
2022/07/07 02:51:32;;;;;;;5.40;3.83;;;17.60;70.90;;;;;;4994845;28;20435;-65
2022/07/07 02:54:00;;;;;;;5.10;3.33;;;17.50;71.60;;;;;;4995515;28;20486;-66
2022/07/07 02:56:27;;;;;;;4.17;3.47;;;17.40;72.00;;;;;;4995168;28;20440;-65
2022/07/07 02:58:54;;;;;;;6.00;4.13;;;17.40;71.90;;;;;;4995719;28;20444;-65
2022/07/07 03:01:21;;;;;;;4.30;3.03;;;17.50;72.50;;;;;;4994989;28;20440;-65
2022/07/07 03:03:48;;;;;;;4.43;4.03;;;17.50;69.00;;;;;;4995518;28;20490;-65
2022/07/07 03:06:17;;;;;;;6.23;4.73;;;17.50;69.20;;;;;;4994636;28;20535;-65
2022/07/07 03:08:44;;;;;;;4.93;3.27;;;17.50;69.70;;;;;;4995285;28;20915;-65
2022/07/07 03:11:12;;;;;;;9.07;4.40;;;17.50;69.70;;;;;;4994669;28;20994;-65
2022/07/07 03:13:39;;;;;;;4.50;3.80;;;17.50;69.70;;;;;;4995087;28;20488;-65
2022/07/07 03:16:06;;;;;;;4.87;3.80;;;17.50;69.60;;;;;;4994417;28;20518;-65
2022/07/07 03:18:33;;;;;;;6.17;3.50;;;17.50;70.00;;;;;;4992709;28;20776;-65
2022/07/07 03:21:00;;;;;;;5.10;3.03;;;17.50;69.80;;;;;;4994647;28;20935;-65
2022/07/07 03:23:28;;;;;;;5.60;3.20;;;17.50;69.00;;;;;;4995036;28;20828;-65
2022/07/07 03:25:56;;;;;;;5.77;3.00;;;17.50;67.60;;;;;;4994633;28;20448;-67
2022/07/07 03:28:23;;;;;;;5.17;3.00;;;17.50;66.30;;;;;;4994883;28;20446;-65
2022/07/07 03:30:50;;;;;;;5.53;3.20;;;17.50;65.40;;;;;;4994662;28;20463;-65
2022/07/07 03:33:17;;;;;;;4.70;3.23;;;17.50;65.50;;;;;;4994088;28;20487;-65
2022/07/07 03:35:44;;;;;;;4.60;2.83;;;17.50;65.40;;;;;;4994501;28;20444;-65
2022/07/07 03:38:11;;;;;;;7.00;3.67;;;17.50;65.10;;;;;;4994935;28;20451;-65
2022/07/07 03:40:40;;;;;;;4.97;3.03;;;17.50;64.60;;;;;;4994237;28;20466;-65
2022/07/07 03:43:07;;;;;;;4.00;3.20;;;17.50;64.50;;;;;;4994127;28;20502;-65
2022/07/07 03:45:34;;;;;;;4.30;2.87;;;17.50;63.90;;;;;;4994301;28;20450;-65
2022/07/07 03:48:01;;;;;;;4.47;2.73;;;17.50;64.10;;;;;;4993393;28;20499;-65
2022/07/07 03:50:28;;;;;;;4.27;2.90;;;17.60;63.70;;;;;;4994334;28;20444;-70
2022/07/07 03:52:55;;;;;;;6.67;3.60;;;17.50;63.60;;;;;;4994023;28;20541;-65
2022/07/07 03:55:23;;;;;;;11.43;4.13;;;17.50;63.20;;;;;;4994281;28;20454;-67
2022/07/07 03:57:52;;;;;;;5.80;3.17;;;17.50;63.00;;;;;;4994009;28;20467;-65
2022/07/07 04:00:19;;;;;;;5.90;2.80;;;17.50;62.80;;;;;;4994199;28;20447;-65
2022/07/07 04:02:47;;;;;;;6.33;3.80;;;17.50;62.80;;;;;;4994006;28;20510;-65
2022/07/07 04:05:14;;;;;;;4.83;2.63;;;17.40;63.90;;;;;;4994411;28;20768;-65
2022/07/07 04:07:41;;;;;;;5.27;2.67;;;17.50;64.70;;;;;;4994015;28;20435;-65
2022/07/07 04:10:09;;;;;;;8.60;3.00;;;17.50;64.40;;;;;;4994384;28;20475;-65
2022/07/07 04:12:36;;;;;;;7.43;3.43;;;17.50;64.00;;;;;;4993699;28;20517;-65
2022/07/07 04:15:05;;;;;;;5.13;3.43;;;17.50;63.80;;;;;;4994357;28;20440;-65
2022/07/07 04:17:32;;;;;;;7.43;4.40;;;17.50;63.00;;;;;;4993735;28;20440;-65
2022/07/07 04:20:00;;;;;;;8.00;3.43;;;17.50;63.00;;;;;;4994077;28;20478;-65
2022/07/07 04:22:27;;;;;;;6.47;4.20;;;17.50;63.90;;;;;;4993762;28;20449;-65
2022/07/07 04:24:55;;;;;;;6.53;3.50;;;17.50;65.70;;;;;;4994176;28;20444;-65
2022/07/07 04:27:22;;;;;;;6.67;3.80;;;17.40;68.00;;;;;;4994049;28;20444;-65
2022/07/07 04:29:49;;;;;;;8.37;4.33;;;17.40;67.30;;;;;;4987742;28;20495;-65
2022/07/07 04:32:17;;;;;;;4.60;3.80;;;17.40;69.00;;;;;;4993997;28;20515;-66
2022/07/07 04:34:44;;;;;;;9.30;4.00;;;17.40;69.60;;;;;;4993570;28;20926;-65
2022/07/07 04:37:11;;;;;;;13.17;8.93;;;17.40;68.80;;;;;;4993930;28;20502;-65
2022/07/07 04:39:38;;;;;;;8.00;5.20;;;17.40;68.60;;;;;;4993657;28;20505;-65
2022/07/07 04:42:06;;;;;;;6.67;3.23;;;17.30;68.20;;;;;;4993878;28;20930;-65
2022/07/07 04:44:33;;;;;;;6.53;4.20;;;17.30;69.60;;;;;;4992958;28;20519;-65
2022/07/07 04:47:00;;;;;;;4.63;4.17;;;17.40;70.30;;;;;;4993812;28;20866;-65
2022/07/07 04:49:29;;;;;;;5.97;5.37;;;17.40;70.60;;;;;;4993083;28;20498;-65
2022/07/07 04:51:56;;;;;;;7.10;4.40;;;17.40;70.50;;;;;;4993504;28;20443;-66
2022/07/07 04:54:24;;;;;;;7.00;4.60;;;17.50;71.60;;;;;;4993460;28;20923;-65
2022/07/07 04:56:51;;;;;;;5.87;4.87;;;17.50;70.80;;;;;;4993608;28;20447;-65
2022/07/07 04:59:18;;;;;;;5.27;4.47;;;17.50;70.30;;;;;;4992721;28;20451;-65
2022/07/07 05:01:45;;;;;;;6.17;4.17;;;17.50;70.80;;;;;;4993428;28;20811;-65
2022/07/07 05:04:12;;;;;;;34.33;25.17;;;17.50;71.40;;;;;;4992958;28;20479;-65
2022/07/07 05:06:41;;;;;;;16.10;10.10;;;17.60;70.30;;;;;;4993352;28;20452;-65
2022/07/07 05:09:09;;;;;;;11.10;6.77;;;17.60;67.70;;;;;;4992598;28;20483;-66
2022/07/07 05:11:36;;;;;;;6.63;4.20;;;17.60;67.60;;;;;;4993522;28;20812;-65
2022/07/07 05:14:04;;;;;;;5.70;3.53;;;17.60;66.90;;;;;;4992956;28;20998;-65
2022/07/07 05:16:31;;;;;;;5.33;3.80;;;17.70;66.30;;;;;;4993333;28;20444;-65
2022/07/07 05:18:58;;;;;;;26.97;22.10;;;17.70;66.40;;;;;;4988516;28;20447;-65
2022/07/07 05:21:25;;;;;;;15.73;14.20;;;17.70;66.60;;;;;;4991944;28;20443;-66
2022/07/07 05:23:53;;;;;;;6.47;4.77;;;17.80;66.70;;;;;;4989903;28;20531;-66
2022/07/07 05:26:20;;;;;;;12.40;7.23;;;17.80;66.70;;;;;;4991768;28;20518;-66
2022/07/07 05:28:56;;;;;;;9.50;4.43;;;17.90;66.80;;;;;;4985358;28;20530;-65
2022/07/07 05:31:23;;;;;;;6.27;4.40;;;17.90;67.40;;;;;;4991901;28;20521;-65
2022/07/07 05:33:50;;;;;;;5.50;3.60;;;17.90;68.00;;;;;;4990657;28;20522;-66
2022/07/07 05:36:17;;;;;;;6.50;3.70;;;17.90;68.20;;;;;;4984520;28;20467;-65
2022/07/07 05:38:45;;;;;;;6.17;4.77;;;18.00;67.80;;;;;;4989670;28;20487;-66
2022/07/07 05:41:13;;;;;;;6.40;4.70;;;18.10;67.90;;;;;;4991665;28;20448;-65
2022/07/07 05:43:40;;;;;;;6.43;4.00;;;18.20;69.20;;;;;;4987318;28;20531;-65
2022/07/07 05:46:07;;;;;;;5.73;3.70;;;18.30;67.00;;;;;;4992042;28;20833;-65
2022/07/07 05:48:34;;;;;;;7.07;4.23;;;18.30;66.60;;;;;;4989808;28;20534;-66
2022/07/07 05:51:00;;;;;;;5.47;3.83;;;18.30;63.00;;;;;;4991825;28;20530;-65
2022/07/07 05:53:27;;;;;;;6.77;4.30;;;18.30;63.50;;;;;;4989539;28;20485;-66
2022/07/07 05:55:54;;;;;;;6.87;3.83;;;18.40;63.30;;;;;;4991614;28;20527;-65
2022/07/07 05:58:22;;;;;;;4.77;3.50;;;18.50;63.80;;;;;;4989312;28;20938;-67
2022/07/07 06:00:50;;;;;;;8.93;3.47;;;18.60;63.80;;;;;;4989019;28;20511;-65
2022/07/07 06:03:17;;;;;;;6.40;3.43;;;18.70;64.10;;;;;;4990443;28;20800;-65
2022/07/07 06:05:44;;;;;;;5.10;3.40;;;18.90;63.70;;;;;;4991559;28;20965;-65
2022/07/07 06:08:11;;;;;;;4.73;4.03;;;19.00;63.30;;;;;;4990263;28;20550;-65
2022/07/07 06:10:38;;;;;;;4.90;3.80;;;19.10;63.20;;;;;;4990233;28;20526;-65
2022/07/07 06:13:05;;;;;;;5.53;4.00;;;19.10;62.20;;;;;;4994373;28;20522;-65
2022/07/07 06:15:35;;;;;;;4.03;3.40;;;19.10;63.70;;;;;;4994312;28;20525;-65
2022/07/07 06:18:02;;;;;;;5.37;3.77;;;19.20;64.70;;;;;;4994496;28;20443;-66
2022/07/07 06:20:29;;;;;;;7.00;3.50;;;19.20;64.20;;;;;;4993245;28;20439;-67
2022/07/07 06:22:57;;;;;;;7.70;4.03;;;19.20;62.90;;;;;;4993686;28;20435;-66
2022/07/07 06:25:26;;;;;;;9.60;3.47;;;19.10;62.90;;;;;;4998631;28;20558;-66
2022/07/07 06:27:53;;;;;;;6.00;3.40;;;19.10;63.90;;;;;;4994744;28;20949;-66
2022/07/07 06:30:20;;;;;;;3.83;3.43;;;19.10;63.80;;;;;;4992554;28;20550;-65
2022/07/07 06:32:49;;;;;;;4.00;3.20;;;19.10;64.70;;;;;;4994156;28;20454;-66
2022/07/07 06:35:16;;;;;;;4.73;2.90;;;19.10;63.80;;;;;;4992760;28;20530;-65
2022/07/07 06:37:42;;;;;;;7.40;3.97;;;19.10;64.30;;;;;;4994707;28;20454;-65
2022/07/07 06:40:11;;;;;;;9.43;4.07;;;19.00;63.90;;;;;;4994269;28;20534;-65
2022/07/07 06:42:39;;;;;;;7.13;3.60;;;18.90;64.10;;;;;;4994685;28;20502;-65
2022/07/07 06:45:07;;;;;;;4.50;3.47;;;18.90;64.90;;;;;;4994450;28;20534;-65
2022/07/07 06:47:34;;;;;;;8.97;4.03;;;18.90;66.10;;;;;;4994061;28;20522;-66
2022/07/07 06:50:03;;;;;;;5.73;3.67;;;19.00;65.30;;;;;;4994519;28;20520;-65
2022/07/07 06:52:30;;;;;;;7.30;3.40;;;19.00;64.30;;;;;;4994395;28;20448;-65
2022/07/07 06:54:56;;;;;;;4.60;2.90;;;19.00;65.60;;;;;;4994308;28;20579;-65
2022/07/07 06:57:23;;;;;;;5.27;3.10;;;19.00;64.50;;;;;;4994010;28;20479;-66
2022/07/07 06:59:50;;;;;;;5.80;3.07;;;19.00;64.10;;;;;;4994316;28;20522;-65
2022/07/07 07:02:17;;;;;;;6.53;2.73;;;19.10;65.10;;;;;;4994234;28;20550;-65
2022/07/07 07:04:44;;;;;;;3.73;2.83;;;19.10;63.50;;;;;;4994177;28;21018;-66
2022/07/07 07:07:12;;;;;;;7.57;3.60;;;19.20;63.90;;;;;;4993645;28;20442;-66
2022/07/07 07:09:39;;;;;;;5.20;3.43;;;19.20;65.40;;;;;;4993944;28;20540;-66
2022/07/07 07:12:07;;;;;;;5.97;3.80;;;19.20;66.30;;;;;;4993916;28;20506;-65
2022/07/07 07:14:34;;;;;;;4.40;2.93;;;19.20;66.10;;;;;;4993782;28;20566;-66
2022/07/07 07:17:01;;;;;;;4.67;3.27;;;19.10;65.00;;;;;;4993906;28;20506;-65
2022/07/07 07:19:28;;;;;;;9.57;7.20;;;19.10;64.70;;;;;;4994012;28;20523;-65
2022/07/07 07:21:55;;;;;;;5.80;4.47;;;19.20;65.80;;;;;;4993661;28;20530;-66
2022/07/07 07:24:23;;;;;;;7.73;4.20;;;19.20;65.00;;;;;;4993915;28;20476;-67
2022/07/07 07:26:50;;;;;;;8.20;4.40;;;19.30;67.10;;;;;;4989939;28;20475;-66
2022/07/07 07:29:17;;;;;;;4.70;3.20;;;19.40;69.20;;;;;;4993844;28;20900;-65
2022/07/07 07:31:44;;;;;;;5.07;3.13;;;19.50;68.20;;;;;;4993755;28;20989;-65
2022/07/07 07:34:11;;;;;;;3.87;3.10;;;19.60;65.70;;;;;;4993293;28;20598;-67
2022/07/07 07:36:38;;;;;;;10.33;2.60;;;19.70;65.90;;;;;;4989501;28;20534;-66
2022/07/07 07:39:05;;;;;;;10.17;3.23;;;19.90;63.50;;;;;;4993490;28;20538;-65
2022/07/07 07:41:33;;;;;;;8.63;2.80;;;20.00;63.70;;;;;;4993708;28;20526;-65
2022/07/07 07:44:00;;;;;;;5.57;2.17;;;20.10;62.50;;;;;;4993236;28;20432;-66
2022/07/07 07:46:27;;;;;;;4.50;2.23;;;20.20;62.20;;;;;;4993387;28;20490;-66
2022/07/07 07:48:54;;;;;;;6.60;2.40;;;20.20;58.20;;;;;;4993525;28;20487;-65
2022/07/07 07:51:21;;;;;;;4.77;2.13;;;20.10;57.50;;;;;;4993330;28;20877;-65
2022/07/07 07:53:48;;;;;;;6.63;2.10;;;20.10;58.50;;;;;;4992991;28;20898;-67
2022/07/07 07:56:15;;;;;;;6.47;3.03;;;20.10;58.40;;;;;;4989291;28;20531;-70
2022/07/07 07:58:43;;;;;;;4.97;3.00;;;20.10;57.30;;;;;;4993213;28;20867;-65
2022/07/07 08:01:15;;;;;;;3.20;1.90;;;20.10;57.80;;;;;;4993516;28;20523;-65
2022/07/07 08:03:42;;;;;;;4.10;2.30;;;20.10;57.60;;;;;;4993296;28;20864;-65
2022/07/07 08:06:09;;;;;;;3.90;2.43;;;20.10;56.50;;;;;;4993141;28;20475;-65
2022/07/07 08:08:36;;;;;;;4.63;1.83;;;20.10;55.30;;;;;;4992824;28;20444;-65
2022/07/07 08:11:03;;;;;;;4.60;2.37;;;20.10;56.50;;;;;;4992819;28;20800;-65
2022/07/07 08:13:30;;;;;;;3.70;2.30;;;20.30;55.70;;;;;;4992723;28;20530;-65
2022/07/07 08:15:58;;;;;;;5.20;2.17;;;20.40;55.90;;;;;;4993099;28;20471;-66
2022/07/07 08:18:27;;;;;;;8.07;3.00;;;20.70;56.50;;;;;;4992915;28;20855;-66
2022/07/07 08:20:54;;;;;;;6.47;3.40;;;21.00;55.80;;;;;;4992753;28;20458;-66
2022/07/07 08:23:21;;;;;;;3.70;2.40;;;21.20;54.00;;;;;;4988953;28;20532;-65
2022/07/07 08:25:48;;;;;;;3.40;2.30;;;21.40;54.70;;;;;;4993042;28;20863;-65
2022/07/07 08:28:15;;;;;;;5.20;3.10;;;21.60;51.30;;;;;;4992866;28;20538;-65
2022/07/07 08:30:42;;;;;;;11.37;3.10;;;21.60;52.40;;;;;;4992211;28;20567;-66
2022/07/07 08:33:10;;;;;;;5.93;2.47;;;21.50;52.30;;;;;;4988151;28;20526;-65
2022/07/07 08:35:37;;;;;;;9.40;2.07;;;21.50;52.90;;;;;;4992274;28;20574;-65
2022/07/07 08:38:04;;;;;;;4.50;2.10;;;21.60;53.70;;;;;;4992798;28;20991;-65
2022/07/07 08:40:31;;;;;;;5.47;2.50;;;21.80;55.50;;;;;;4992461;28;20482;-65
2022/07/07 08:42:58;;;;;;;5.03;2.17;;;22.00;53.30;;;;;;4992203;28;20989;-65
2022/07/07 08:45:25;;;;;;;6.00;1.93;;;22.10;54.40;;;;;;4992637;28;20539;-65
2022/07/07 08:47:52;;;;;;;9.53;2.70;;;22.40;55.30;;;;;;4992789;28;20443;-66
2022/07/07 08:50:21;;;;;;;7.97;2.10;;;22.70;54.90;;;;;;4992280;28;20440;-66
2022/07/07 08:52:52;;;;;;;5.70;2.40;;;22.90;50.50;;;;;;4991935;28;20993;-66
2022/07/07 08:55:22;;;;;;;5.33;2.73;;;23.10;53.20;;;;;;4992656;28;20855;-65
2022/07/07 08:57:51;;;;;;;7.30;2.67;;;23.40;52.00;;;;;;4992521;28;20448;-65
2022/07/07 09:00:18;;;;;;;7.47;2.47;;;23.70;52.50;;;;;;4992433;28;20443;-65
2022/07/07 09:02:46;;;;;;;4.83;2.23;;;24.10;53.00;;;;;;4992528;28;20867;-65
2022/07/07 09:05:13;;;;;;;3.90;2.13;;;24.40;50.00;;;;;;4992205;28;20538;-66
2022/07/07 09:07:50;;;;;;;4.40;2.53;;;24.60;50.30;;;;;;4992235;28;20533;-66
2022/07/07 09:10:33;;;;;;;5.00;2.80;;;24.80;48.90;;;;;;4989778;28;20538;-65
2022/07/07 09:13:01;;;;;;;3.87;2.70;;;25.00;50.50;;;;;;4988516;28;20546;-65
2022/07/07 09:15:28;;;;;;;3.83;2.10;;;25.30;50.60;;;;;;4992094;28;20582;-66
2022/07/07 09:17:55;;;;;;;4.47;2.40;;;25.50;48.80;;;;;;4992086;28;20994;-66
2022/07/07 09:20:23;;;;;;;5.67;2.67;;;25.80;50.50;;;;;;4991626;28;20892;-66
2022/07/07 09:22:53;;;;;;;4.73;2.23;;;26.30;51.20;;;;;;4992305;28;20542;-65
2022/07/07 09:25:26;;;;;;;3.87;2.27;;;26.70;48.10;;;;;;4992138;28;20522;-65
2022/07/07 09:27:57;;;;;;;3.30;2.50;;;26.90;47.30;;;;;;4991605;28;20538;-66
2022/07/07 09:30:28;;;;;;;3.40;2.57;;;27.10;45.80;;;;;;4991795;28;20463;-66
2022/07/07 09:32:55;;;;;;;3.27;2.57;;;27.20;45.80;;;;;;4991890;28;20483;-66
2022/07/07 09:38:17;;;;;;;3.53;2.00;;;27.00;44.20;;;;;;4992227;28;20573;-66
2022/07/07 09:40:58;;;;;;;6.47;2.20;;;26.80;45.40;;;;;;4988386;28;20842;-66
2022/07/07 09:43:25;;;;;;;2.93;2.03;;;26.70;44.90;;;;;;4991718;28;20952;-66
2022/07/07 09:46:12;;;;;;;3.53;2.30;;;26.70;44.50;;;;;;4991695;28;20476;-66
2022/07/07 09:48:40;;;;;;;3.10;2.10;;;26.50;44.30;;;;;;4995429;28;20439;-66
2022/07/07 09:51:22;;;;;;;6.10;2.53;;;26.40;44.20;;;;;;4995629;28;20443;-65
2022/07/07 09:54:05;;;;;;;3.87;1.97;;;26.10;43.90;;;;;;4995340;28;20477;-66
2022/07/07 09:56:35;;;;;;;5.90;1.83;;;25.90;44.70;;;;;;4995785;28;20485;-65
2022/07/07 09:59:03;;;;;;;2.87;1.70;;;25.60;43.90;;;;;;4995428;28;20531;-66
2022/07/07 10:01:32;;;;;;;3.77;2.07;;;25.30;44.20;;;;;;4991861;28;20822;-66
2022/07/07 10:04:01;;;;;;;4.80;2.40;;;25.00;44.10;;;;;;4995658;28;20487;-65
2022/07/07 10:06:29;;;;;;;4.10;2.17;;;24.70;45.60;;;;;;4995535;28;20547;-66
2022/07/07 10:08:59;;;;;;;4.70;2.07;;;24.60;47.60;;;;;;4995411;28;20531;-66
2022/07/07 10:11:38;;;;;;;5.17;2.07;;;24.50;49.10;;;;;;4995620;28;20550;-65
2022/07/07 10:14:14;;;;;;;4.80;1.83;;;24.30;49.20;;;;;;4995024;28;20483;-66
2022/07/07 10:16:42;;;;;;;6.83;1.80;;;24.30;49.30;;;;;;4995380;28;20790;-65
2022/07/07 10:19:11;;;;;;;3.23;1.93;;;24.30;49.90;;;;;;4995187;28;20541;-67
2022/07/07 10:21:41;;;;;;;5.03;2.00;;;24.20;50.20;;;;;;4991153;28;20938;-65
2022/07/07 10:24:10;;;;;;;2.93;1.90;;;24.20;50.10;;;;;;4995343;28;20439;-65
2022/07/07 10:26:39;;;;;;;6.97;2.47;;;24.10;49.80;;;;;;4993732;28;20447;-65
2022/07/07 10:29:07;;;;;;;3.17;2.10;;;24.10;50.00;;;;;;4994726;28;20561;-65
2022/07/07 10:31:35;;;;;;;3.63;2.07;;;24.20;49.10;;;;;;4992972;28;20522;-66
2022/07/07 10:34:03;;;;;;;4.33;1.90;;;24.40;50.10;;;;;;4994893;28;20538;-66
2022/07/07 10:37:06;;;;;;;5.40;1.80;;;24.70;50.60;;;;;;4993864;28;20533;-66
2022/07/07 10:39:37;;;;;;;4.50;2.10;;;25.00;48.70;;;;;;4994818;28;20798;-65
2022/07/07 10:42:07;;;;;;;3.73;1.87;;;25.20;48.60;;;;;;4994246;28;20458;-65
2022/07/07 10:44:37;;;;;;;4.53;2.17;;;24.90;48.30;;;;;;4993970;28;20537;-65
2022/07/07 10:47:17;;;;;;;4.67;2.33;;;24.70;48.50;;;;;;4994897;28;20534;-65
2022/07/07 10:49:46;;;;;;;4.00;2.03;;;24.50;48.50;;;;;;4994473;28;20838;-68
2022/07/07 10:52:15;;;;;;;10.60;2.43;;;24.30;49.20;;;;;;4994717;28;20876;-65
2022/07/07 10:54:47;;;;;;;4.50;2.20;;;24.20;49.70;;;;;;4994630;28;21003;-65
2022/07/07 10:57:16;;;;;;;2.87;1.90;;;24.10;49.90;;;;;;4993677;28;20453;-68
2022/07/07 11:00:09;;;;;;;3.60;1.80;;;24.10;50.50;;;;;;4994764;28;20451;-66
2022/07/07 11:02:38;;;;;;;4.20;1.90;;;24.10;50.50;;;;;;4991178;28;20434;-65
2022/07/07 11:05:26;;;;;;;3.60;1.60;;;24.00;50.10;;;;;;4994579;28;20446;-66
2022/07/07 11:08:14;;;;;;;2.90;1.87;;;24.00;51.10;;;;;;4991799;28;20977;-66
2022/07/07 11:10:53;;;;;;;5.50;2.37;;;24.10;51.50;;;;;;4990955;28;20442;-66
2022/07/07 11:13:32;;;;;;;6.60;2.00;;;24.30;50.50;;;;;;4994075;28;20446;-66
2022/07/07 11:16:28;;;;;;;4.43;2.07;;;24.50;49.10;;;;;;4994344;28;20922;-65
2022/07/07 11:18:57;;;;;;;6.23;1.73;;;24.80;48.00;;;;;;4949783;28;20453;-65
2022/07/07 11:21:34;;;;;;;3.60;1.53;;;24.90;46.90;;;;;;4993947;28;20476;-67
2022/07/07 11:24:02;;;;;;;6.27;2.03;;;25.00;46.60;;;;;;4991791;28;20478;-66
2022/07/07 11:26:32;;;;;;;2.83;1.70;;;25.00;47.40;;;;;;4993987;28;20458;-66
2022/07/07 11:29:05;;;;;;;3.37;1.73;;;24.90;47.40;;;;;;4993777;28;20884;-66
2022/07/07 11:31:32;;;;;;;4.80;1.80;;;24.80;47.10;;;;;;4994060;28;20470;-66
2022/07/07 11:33:59;;;;;;;3.60;1.60;;;24.70;47.10;;;;;;4993815;28;20546;-65
2022/07/07 11:36:28;;;;;;;3.77;1.87;;;24.60;49.20;;;;;;4993272;28;20525;-65
2022/07/07 11:38:57;;;;;;;3.00;1.73;;;24.70;49.60;;;;;;4993931;28;20479;-66
2022/07/07 11:41:39;;;;;;;4.40;1.77;;;24.70;47.70;;;;;;4994010;28;20471;-65
2022/07/07 11:44:07;;;;;;;2.53;1.60;;;24.70;47.80;;;;;;4990740;28;20440;-66
2022/07/07 11:46:34;;;;;;;5.23;2.17;;;24.70;48.30;;;;;;4993620;28;20442;-66
2022/07/07 11:49:01;;;;;;;4.20;1.93;;;24.70;48.30;;;;;;4993404;28;20876;-66
2022/07/07 11:51:30;;;;;;;4.77;1.60;;;24.70;48.40;;;;;;4993436;28;20529;-66
2022/07/07 11:53:58;;;;;;;2.50;1.40;;;24.80;47.90;;;;;;4993262;28;20450;-66
2022/07/07 11:56:30;;;;;;;3.50;1.50;;;24.80;47.10;;;;;;4993056;28;21008;-66
2022/07/07 11:58:59;;;;;;;2.70;1.40;;;25.10;47.20;;;;;;4993234;28;20536;-65
2022/07/07 12:01:30;;;;;;;2.33;1.17;;;25.30;48.00;;;;;;4993144;28;20538;-66
2022/07/07 12:03:57;;;;;;;6.27;1.53;;;25.70;47.90;;;;;;4993521;28;20855;-65
2022/07/07 12:06:27;;;;;;;5.40;1.70;;;26.10;46.90;;;;;;4992843;28;20486;-66
2022/07/07 12:08:56;;;;;;;7.17;1.57;;;26.30;44.40;;;;;;4992447;28;20446;-66
2022/07/07 12:11:23;;;;;;;2.90;1.47;;;26.40;44.10;;;;;;4993100;28;20518;-66
2022/07/07 12:13:52;;;;;;;2.90;1.43;;;26.40;43.60;;;;;;4992980;28;20850;-67
2022/07/07 12:16:20;;;;;;;3.40;1.30;;;26.50;43.00;;;;;;4993301;28;20483;-65
2022/07/07 12:18:47;;;;;;;2.70;1.30;;;26.50;43.10;;;;;;4993257;28;20527;-65
2022/07/07 12:21:15;;;;;;;2.40;1.50;;;26.50;43.20;;;;;;4993141;28;20515;-66
2022/07/07 12:23:44;;;;;;;4.70;1.60;;;26.50;42.00;;;;;;4992656;28;20852;-66
2022/07/07 12:26:13;;;;;;;3.43;1.40;;;26.50;42.70;;;;;;4992824;28;20468;-65
2022/07/07 12:28:51;;;;;;;4.37;1.50;;;26.40;43.10;;;;;;5088581;27;20550;-65
2022/07/07 12:31:19;;;;;;;5.30;1.73;;;26.30;43.00;;;;;;5089027;28;20419;-65
2022/07/07 12:33:46;;;;;;;3.50;1.47;;;26.20;43.40;;;;;;5088965;28;20541;-65
2022/07/07 12:36:15;;;;;;;2.20;1.30;;;26.10;43.60;;;;;;5088815;28;20481;-66
2022/07/07 12:38:45;;;;;;;4.70;1.57;;;26.00;43.00;;;;;;5084344;28;20879;-65
2022/07/07 12:41:34;;;;;;;2.70;1.57;;;25.80;43.80;;;;;;5088616;28;20816;-65
2022/07/07 12:44:14;;;;;;;3.63;2.37;;;25.70;43.70;;;;;;5084097;28;20538;-65
2022/07/07 12:46:42;;;;;;;3.93;2.03;;;25.50;44.30;;;;;;5087951;28;20427;-65
2022/07/07 12:49:09;;;;;;;3.90;2.03;;;25.40;44.60;;;;;;5088683;28;20435;-65
2022/07/07 12:51:38;;;;;;;6.43;1.93;;;25.40;44.80;;;;;;5088673;28;20530;-65
2022/07/07 12:54:06;;;;;;;3.40;1.73;;;25.40;45.00;;;;;;5088087;28;20930;-66
2022/07/07 12:56:34;;;;;;;3.40;2.00;;;25.40;45.60;;;;;;5084152;28;20434;-65